createdAt,value
2023-05-12T00:02:27.343Z,10.20
2023-05-12T00:07:31.427Z,8.10
2023-05-12T00:12:35.340Z,10.60
2023-05-12T00:17:39.398Z,11.70
2023-05-12T00:22:44.401Z,10.50
2023-05-12T00:27:49.039Z,10.40
2023-05-12T00:32:52.972Z,7.90
2023-05-12T00:37:57.209Z,11.50
2023-05-12T00:43:01.350Z,10.40
2023-05-12T00:48:07.764Z,10.70
2023-05-12T00:53:12.512Z,10.60
2023-05-12T00:58:16.895Z,10.40
2023-05-12T01:03:21.532Z,10.70
2023-05-12T01:08:26.291Z,10.50
2023-05-12T01:13:31.251Z,10.90
2023-05-12T01:18:38.060Z,10.60
2023-05-12T01:23:47.039Z,10.90
2023-05-12T01:28:52.166Z,10.80
2023-05-12T01:33:56.361Z,10.20
2023-05-12T01:39:00.673Z,9.40
2023-05-12T01:44:04.615Z,9.60
2023-05-12T01:49:08.436Z,10.30
2023-05-12T01:54:12.384Z,10.00
2023-05-12T01:59:16.216Z,9.80
2023-05-12T02:04:19.932Z,6.60
2023-05-12T02:09:23.752Z,10.40
2023-05-12T02:14:28.492Z,10.20
2023-05-12T02:19:32.827Z,9.60
2023-05-12T02:24:36.571Z,9.60
2023-05-12T02:29:41.592Z,9.70
2023-05-12T02:34:45.842Z,10.20
2023-05-12T02:39:50.093Z,9.10
2023-05-12T02:44:54.016Z,9.70
2023-05-12T02:50:00.981Z,10.40
2023-05-12T02:55:06.008Z,10.20
2023-05-12T03:00:12.232Z,11.00
2023-05-12T03:05:16.243Z,10.60
2023-05-12T03:10:20.469Z,10.10
2023-05-12T03:15:24.698Z,11.10
2023-05-12T03:20:28.877Z,7.90
2023-05-12T03:25:34.706Z,11.10
2023-05-12T03:30:38.731Z,8.00
2023-05-12T03:35:42.883Z,10.30
2023-05-12T03:40:52.006Z,9.30
2023-05-12T03:45:55.881Z,10.70
2023-05-12T03:50:59.845Z,10.10
2023-05-12T03:56:07.057Z,9.90
2023-05-12T04:06:13.491Z,10.90
2023-05-12T04:11:17.527Z,9.80
2023-05-12T04:16:22.175Z,10.60
2023-05-12T04:21:26.193Z,10.80
2023-05-12T04:26:30.307Z,9.50
2023-05-12T04:31:34.205Z,9.70
2023-05-12T04:36:37.920Z,11.30
2023-05-12T04:41:41.879Z,9.90
2023-05-12T04:46:45.706Z,10.50
2023-05-12T04:51:49.842Z,10.20
2023-05-12T04:56:54.310Z,9.60
2023-05-12T05:01:59.229Z,11.50
2023-05-12T05:07:03.671Z,11.50
2023-05-12T05:12:09.032Z,10.10
2023-05-12T05:17:13.165Z,10.60
2023-05-12T05:22:17.527Z,10.10
2023-05-12T05:27:22.119Z,10.80
2023-05-12T05:32:26.391Z,11.00
2023-05-12T05:37:30.806Z,9.60
2023-05-12T05:42:34.618Z,10.10
2023-05-12T05:47:38.309Z,12.20
2023-05-12T05:52:42.171Z,10.50
2023-05-12T05:57:46.017Z,9.10
2023-05-12T06:02:49.877Z,11.00
2023-05-12T06:07:54.261Z,10.60
2023-05-12T06:12:57.996Z,10.30
2023-05-12T06:18:02.084Z,11.90
2023-05-12T06:23:06.370Z,11.40
2023-05-12T06:28:10.159Z,11.00
2023-05-12T06:33:14.942Z,10.50
2023-05-12T06:38:18.634Z,11.90
2023-05-12T06:43:22.960Z,10.90
2023-05-12T06:48:26.809Z,10.70
2023-05-12T06:53:31.939Z,10.10
2023-05-12T06:58:35.858Z,9.80
2023-05-12T07:03:39.968Z,10.30
2023-05-12T07:08:43.967Z,10.70
2023-05-12T07:13:48.257Z,9.80
2023-05-12T07:18:52.113Z,8.50
2023-05-12T07:23:56.041Z,9.30
2023-05-12T07:29:00.831Z,9.00
2023-05-12T07:34:05.592Z,8.50
2023-05-12T07:39:09.413Z,14.70
2023-05-12T07:44:13.108Z,8.30
2023-05-12T07:49:16.958Z,8.70
2023-05-12T07:54:20.661Z,9.70
2023-05-12T07:59:24.515Z,7.80
2023-05-12T08:04:28.534Z,7.30
2023-05-12T08:09:32.693Z,5.20
2023-05-12T08:14:37.420Z,5.70
2023-05-12T08:19:42.007Z,4.90
2023-05-12T08:24:46.487Z,6.50
2023-05-12T08:29:50.243Z,4.50
2023-05-12T08:34:54.815Z,4.80
2023-05-12T08:39:58.889Z,5.20
2023-05-12T08:45:04.138Z,4.70
2023-05-12T08:50:11.208Z,4.40
2023-05-12T08:55:15.484Z,4.70
2023-05-12T09:00:22.341Z,4.30
2023-05-12T09:05:29.375Z,5.30
2023-05-12T09:10:35.501Z,4.80
2023-05-12T09:15:44.926Z,4.60
2023-05-12T09:20:48.825Z,4.10
2023-05-12T09:26:01.168Z,3.90
2023-05-12T09:31:16.248Z,3.50
2023-05-12T09:36:21.311Z,4.30
2023-05-12T09:41:25.418Z,3.80
2023-05-12T09:46:29.673Z,3.40
2023-05-12T09:51:33.474Z,3.70
2023-05-12T09:56:38.755Z,4.00
2023-05-12T10:01:43.036Z,3.90
2023-05-12T10:06:47.697Z,4.20
2023-05-12T10:11:53.789Z,4.60
2023-05-12T10:22:02.859Z,5.00
2023-05-12T10:27:08.206Z,6.10
2023-05-12T10:32:12.595Z,6.10
2023-05-12T10:37:16.958Z,5.10
2023-05-12T10:48:09.514Z,4.10
2023-05-12T10:53:13.718Z,4.40
2023-05-12T10:58:19.537Z,4.10
2023-05-12T11:08:32.433Z,3.90
2023-05-12T11:13:36.970Z,4.40
2023-05-12T11:18:40.803Z,4.60
2023-05-12T11:23:50.196Z,4.80
2023-05-12T11:28:54.208Z,4.30
2023-05-12T11:34:11.858Z,5.30
2023-05-12T11:39:18.354Z,4.60
2023-05-12T11:44:23.602Z,4.90
2023-05-12T11:49:28.661Z,4.60
2023-05-12T11:54:32.595Z,4.70
2023-05-12T11:59:36.838Z,4.30
2023-05-12T12:04:41.927Z,4.70
2023-05-12T12:09:45.792Z,4.60
2023-05-12T12:14:49.652Z,4.30
2023-05-12T12:19:53.632Z,4.00
2023-05-12T12:24:57.610Z,4.60
2023-05-12T12:30:02.007Z,4.70
2023-05-12T12:35:07.586Z,4.60
2023-05-12T12:40:12.995Z,4.50
2023-05-12T12:45:19.357Z,4.80
2023-05-12T12:50:26.441Z,4.50
2023-05-12T12:55:31.497Z,4.80
2023-05-12T13:00:36.176Z,4.20
2023-05-12T13:05:40.174Z,3.70
2023-05-12T13:10:43.972Z,4.60
2023-05-12T13:15:50.052Z,4.30
2023-05-12T13:20:54.163Z,5.10
2023-05-12T13:25:58.805Z,4.30
2023-05-12T13:31:02.711Z,4.20
2023-05-12T13:36:08.316Z,4.00
2023-05-12T13:41:12.415Z,4.00
2023-05-12T13:46:16.130Z,4.40
2023-05-12T13:51:20.787Z,3.60
2023-05-12T13:56:25.226Z,3.50
2023-05-12T14:01:31.011Z,4.00
2023-05-12T14:06:36.145Z,4.10
2023-05-12T14:11:40.691Z,4.00
2023-05-12T14:16:44.792Z,4.30
2023-05-12T14:21:49.362Z,4.10
2023-05-12T14:26:54.338Z,4.40
2023-05-12T14:31:59.379Z,4.20
2023-05-12T14:37:03.283Z,4.00
2023-05-12T14:42:08.535Z,4.10
2023-05-12T14:47:12.465Z,4.10
2023-05-12T14:52:16.304Z,4.50
2023-05-12T14:57:20.678Z,4.40
2023-05-12T15:02:24.879Z,5.00
2023-05-12T15:07:29.588Z,4.20
2023-05-12T15:12:33.578Z,4.20
2023-05-12T15:17:38.128Z,4.30
2023-05-12T15:22:42.221Z,4.30
2023-05-12T15:27:46.183Z,4.60
2023-05-12T15:32:50.465Z,4.30
2023-05-12T15:37:54.349Z,5.70
2023-05-12T15:42:58.545Z,4.50
2023-05-12T15:48:02.757Z,4.10
2023-05-12T15:53:07.162Z,4.70
2023-05-12T15:58:11.523Z,4.70
2023-05-12T16:03:15.501Z,5.70
2023-05-12T16:08:20.323Z,4.40
2023-05-12T16:13:24.305Z,5.00
2023-05-12T16:18:30.144Z,4.80
2023-05-12T16:23:33.796Z,6.20
2023-05-12T16:28:37.566Z,4.70
2023-05-12T16:33:41.466Z,3.90
2023-05-12T16:38:45.549Z,4.90
2023-05-12T16:43:49.922Z,4.70
2023-05-12T16:48:54.035Z,4.40
2023-05-12T16:53:57.898Z,4.50
2023-05-12T16:59:02.220Z,4.70
2023-05-12T17:04:07.351Z,4.70
2023-05-12T17:09:11.288Z,4.50
2023-05-12T17:14:16.232Z,4.90
2023-05-12T17:24:26.347Z,5.10
2023-05-12T17:29:31.216Z,5.00
2023-05-12T17:34:35.638Z,5.50
2023-05-12T17:39:41.605Z,4.80
2023-05-12T17:44:46.139Z,4.00
2023-05-12T17:49:50.033Z,4.20
2023-05-12T17:54:56.547Z,5.50
2023-05-12T18:00:03.544Z,4.50
2023-05-12T18:05:09.411Z,4.40
2023-05-12T18:10:13.799Z,5.90
2023-05-12T18:15:19.395Z,4.90
2023-05-12T18:20:23.360Z,6.10
2023-05-12T18:25:27.693Z,5.50
2023-05-12T18:30:31.750Z,5.60
2023-05-12T18:35:35.568Z,5.30
2023-05-12T18:40:40.129Z,5.70
2023-05-12T18:45:43.817Z,5.80
2023-05-12T18:50:47.718Z,6.50
2023-05-12T18:55:51.490Z,6.00
2023-05-12T19:00:55.232Z,5.40
2023-05-12T19:05:59.765Z,5.30
2023-05-12T19:11:03.746Z,4.20
2023-05-12T19:16:08.140Z,5.60
2023-05-12T19:21:12.883Z,5.50
2023-05-12T19:26:16.746Z,5.40
2023-05-12T19:31:20.559Z,5.40
2023-05-12T19:36:24.395Z,5.40
2023-05-12T19:41:28.964Z,6.40
2023-05-12T19:46:33.368Z,5.30
2023-05-12T19:51:37.711Z,6.20
2023-05-12T19:56:41.465Z,6.10
2023-05-12T20:01:45.557Z,6.40
2023-05-12T20:06:50.130Z,7.10
2023-05-12T20:11:54.641Z,6.60
2023-05-12T20:17:05.072Z,6.20
2023-05-12T20:22:10.038Z,4.30
2023-05-12T20:27:13.882Z,6.10
2023-05-12T20:32:17.732Z,6.80
2023-05-12T20:37:21.939Z,6.80
2023-05-12T20:42:25.788Z,6.40
2023-05-12T20:47:30.443Z,7.90
2023-05-12T20:52:36.500Z,7.30
2023-05-12T20:57:41.018Z,8.20
2023-05-12T21:02:45.249Z,6.70
2023-05-12T21:07:49.684Z,9.20
2023-05-12T21:12:53.547Z,7.90
2023-05-12T21:17:58.455Z,8.10
2023-05-12T21:23:02.920Z,9.20
2023-05-12T21:28:07.175Z,6.80
2023-05-12T21:33:11.179Z,8.70
2023-05-12T21:38:15.229Z,7.80
2023-05-12T21:43:19.028Z,9.10
2023-05-12T21:48:24.364Z,8.40
2023-05-12T21:53:29.032Z,8.00
2023-05-12T21:58:33.103Z,8.30
2023-05-12T22:03:37.491Z,8.20
2023-05-12T22:08:41.853Z,7.90
2023-05-12T22:13:45.748Z,8.90
2023-05-12T22:18:49.552Z,8.20
2023-05-12T22:23:53.818Z,9.00
2023-05-12T22:28:57.581Z,7.80
2023-05-12T22:34:01.615Z,8.60
2023-05-12T22:39:05.721Z,8.90
2023-05-12T22:44:09.624Z,7.60
2023-05-12T22:49:13.438Z,8.00
2023-05-12T22:54:17.184Z,8.10
2023-05-12T22:59:20.909Z,7.80
2023-05-12T23:04:25.155Z,8.30
2023-05-12T23:09:29.348Z,8.20
2023-05-12T23:14:33.568Z,8.50
2023-05-12T23:19:39.031Z,8.40
2023-05-12T23:24:43.810Z,7.80
2023-05-12T23:29:47.694Z,8.10
2023-05-12T23:34:51.680Z,7.90
2023-05-12T23:39:55.826Z,8.40
2023-05-12T23:45:00.415Z,7.80
2023-05-12T23:50:06.480Z,8.30
2023-05-12T23:55:11.655Z,9.00
